createdAt,value
2023-05-06T00:00:12.689Z,13.60
2023-05-06T00:02:39.513Z,13.60
2023-05-06T00:05:07.010Z,13.60
2023-05-06T00:07:34.011Z,13.60
2023-05-06T00:10:00.837Z,13.60
2023-05-06T00:12:27.692Z,13.60
2023-05-06T00:14:54.526Z,13.60
2023-05-06T00:17:21.304Z,13.60
2023-05-06T00:19:48.118Z,13.60
2023-05-06T00:22:14.969Z,13.50
2023-05-06T00:24:41.762Z,13.50
2023-05-06T00:27:08.864Z,13.50
2023-05-06T00:29:35.683Z,13.40
2023-05-06T00:32:02.583Z,13.40
2023-05-06T00:34:29.448Z,13.30
2023-05-06T00:36:56.272Z,13.30
2023-05-06T00:39:23.044Z,13.30
2023-05-06T00:41:50.106Z,13.30
2023-05-06T00:44:17.050Z,13.30
2023-05-06T00:46:43.969Z,13.30
2023-05-06T00:49:11.913Z,13.40
2023-05-06T00:51:38.792Z,13.40
2023-05-06T00:54:05.827Z,13.40
2023-05-06T00:56:32.685Z,13.40
2023-05-06T00:58:59.719Z,13.40
2023-05-06T01:01:27.344Z,13.40
2023-05-06T01:03:57.637Z,13.40
2023-05-06T01:06:35.840Z,13.30
2023-05-06T01:09:23.195Z,13.30
2023-05-06T01:12:05.908Z,13.10
2023-05-06T01:14:43.635Z,13.10
2023-05-06T01:17:11.768Z,13.00
2023-05-06T01:19:42.537Z,12.90
2023-05-06T01:22:10.397Z,13.00
2023-05-06T01:24:38.553Z,13.00
2023-05-06T01:27:05.583Z,12.90
2023-05-06T01:29:32.522Z,12.90
2023-05-06T01:32:10.104Z,12.90
2023-05-06T01:35:08.721Z,12.90
2023-05-06T01:37:56.025Z,12.80
2023-05-06T01:40:24.488Z,12.80
2023-05-06T01:42:51.303Z,12.80
2023-05-06T01:45:18.662Z,12.80
2023-05-06T01:47:46.557Z,12.80
2023-05-06T01:50:13.677Z,12.80
2023-05-06T01:52:41.270Z,12.80
2023-05-06T01:55:08.706Z,12.80
2023-05-06T01:57:36.023Z,12.80
2023-05-06T02:00:02.915Z,12.70
2023-05-06T02:02:29.959Z,12.70
2023-05-06T02:04:56.912Z,12.60
2023-05-06T02:07:23.770Z,12.70
2023-05-06T02:09:50.638Z,12.60
2023-05-06T02:12:17.416Z,12.60
2023-05-06T02:14:44.777Z,12.60
2023-05-06T02:17:11.566Z,12.60
2023-05-06T02:19:38.361Z,12.50
2023-05-06T02:22:05.168Z,12.50
2023-05-06T02:24:32.033Z,12.50
2023-05-06T02:26:58.931Z,12.40
2023-05-06T02:29:25.831Z,12.40
2023-05-06T02:31:52.709Z,12.40
2023-05-06T02:34:19.621Z,12.30
2023-05-06T02:36:46.475Z,12.30
2023-05-06T02:39:13.317Z,12.30
2023-05-06T02:41:40.149Z,12.30
2023-05-06T02:44:07.000Z,12.20
2023-05-06T02:46:34.729Z,12.20
2023-05-06T02:49:02.133Z,12.20
2023-05-06T02:51:29.145Z,12.10
2023-05-06T02:53:55.927Z,12.10
2023-05-06T02:56:22.690Z,12.10
2023-05-06T02:58:49.515Z,12.10
2023-05-06T03:01:16.306Z,12.00
2023-05-06T03:03:43.217Z,12.00
2023-05-06T03:06:10.028Z,12.00
2023-05-06T03:08:36.844Z,12.00
2023-05-06T03:11:03.791Z,12.00
2023-05-06T03:13:30.635Z,12.00
2023-05-06T03:15:57.398Z,12.00
2023-05-06T03:18:24.194Z,11.90
2023-05-06T03:20:51.462Z,11.90
2023-05-06T03:23:18.296Z,11.80
2023-05-06T03:25:45.179Z,11.80
2023-05-06T03:28:12.313Z,11.80
2023-05-06T03:30:39.297Z,11.80
2023-05-06T03:33:06.138Z,11.80
2023-05-06T03:35:32.981Z,11.80
2023-05-06T03:37:59.817Z,11.90
2023-05-06T03:40:26.755Z,11.90
2023-05-06T03:42:53.645Z,12.00
2023-05-06T03:45:20.517Z,12.00
2023-05-06T03:47:48.278Z,12.00
2023-05-06T03:50:15.384Z,12.00
2023-05-06T03:52:42.253Z,12.10
2023-05-06T03:55:09.824Z,12.20
2023-05-06T03:57:36.852Z,12.60
2023-05-06T04:00:03.926Z,13.20
2023-05-06T04:02:31.494Z,13.90
2023-05-06T04:04:58.751Z,14.50
2023-05-06T04:07:25.661Z,15.00
2023-05-06T04:09:52.489Z,15.60
2023-05-06T04:12:19.324Z,16.10
2023-05-06T04:14:46.110Z,16.50
2023-05-06T04:17:13.029Z,17.00
2023-05-06T04:19:39.827Z,17.30
2023-05-06T04:22:06.620Z,17.60
2023-05-06T04:24:33.853Z,17.90
2023-05-06T04:27:00.888Z,18.00
2023-05-06T04:29:27.653Z,18.20
2023-05-06T04:31:55.391Z,18.50
2023-05-06T04:34:22.299Z,19.00
2023-05-06T04:36:49.562Z,19.40
2023-05-06T04:39:16.471Z,19.60
2023-05-06T04:41:44.560Z,19.80
2023-05-06T04:44:11.553Z,20.20
2023-05-06T04:46:38.381Z,20.60
2023-05-06T04:49:05.193Z,20.60
2023-05-06T04:51:32.033Z,20.60
2023-05-06T04:53:58.820Z,20.70
2023-05-06T04:56:26.265Z,20.70
2023-05-06T04:58:53.138Z,20.80
2023-05-06T05:01:20.108Z,20.80
2023-05-06T05:03:46.974Z,20.80
2023-05-06T05:06:13.975Z,21.00
2023-05-06T05:08:40.900Z,21.20
2023-05-06T05:11:07.712Z,21.40
2023-05-06T05:13:34.871Z,21.50
2023-05-06T05:16:01.657Z,21.60
2023-05-06T05:18:29.314Z,21.80
2023-05-06T05:20:56.115Z,22.50
2023-05-06T05:23:22.912Z,23.10
2023-05-06T05:25:50.079Z,23.60
2023-05-06T05:28:16.874Z,24.10
2023-05-06T05:30:43.890Z,24.60
2023-05-06T05:33:10.884Z,24.80
2023-05-06T05:35:37.759Z,25.40
2023-05-06T05:38:04.586Z,25.70
2023-05-06T05:40:31.440Z,26.50
2023-05-06T05:42:58.711Z,27.10
2023-05-06T05:45:25.595Z,27.20
2023-05-06T05:47:54.080Z,27.40
2023-05-06T05:50:21.030Z,27.90
2023-05-06T05:52:48.182Z,28.50
2023-05-06T05:55:15.073Z,28.60
2023-05-06T05:57:41.962Z,28.50
2023-05-06T06:00:10.587Z,29.00
2023-05-06T06:02:39.110Z,29.20
2023-05-06T06:05:06.258Z,29.00
2023-05-06T06:07:33.279Z,28.90
2023-05-06T06:10:00.184Z,28.60
2023-05-06T06:12:26.979Z,28.40
2023-05-06T06:14:53.794Z,28.20
2023-05-06T06:17:20.686Z,28.00
2023-05-06T06:19:47.560Z,28.40
2023-05-06T06:22:14.345Z,28.50
2023-05-06T06:24:41.382Z,28.20
2023-05-06T06:27:08.239Z,28.20
2023-05-06T06:29:35.054Z,28.30
2023-05-06T06:32:03.804Z,28.20
2023-05-06T06:34:30.845Z,28.10
2023-05-06T06:36:57.654Z,28.80
2023-05-06T06:39:24.681Z,29.00
2023-05-06T06:41:51.538Z,29.00
2023-05-06T06:44:18.338Z,29.60
2023-05-06T06:46:45.163Z,30.30
2023-05-06T06:49:11.995Z,30.80
2023-05-06T06:51:38.823Z,31.40
2023-05-06T06:54:05.730Z,31.00
2023-05-06T06:56:32.530Z,31.10
2023-05-06T06:58:59.338Z,31.20
2023-05-06T07:01:26.277Z,31.30
2023-05-06T07:03:53.261Z,31.70
2023-05-06T07:06:20.166Z,32.40
2023-05-06T07:08:47.119Z,32.80
2023-05-06T07:11:14.457Z,33.20
2023-05-06T07:13:41.259Z,33.90
2023-05-06T07:16:08.105Z,34.10
2023-05-06T07:18:34.932Z,33.90
2023-05-06T07:21:01.834Z,33.50
2023-05-06T07:23:30.497Z,34.10
2023-05-06T07:25:59.633Z,34.90
2023-05-06T07:28:26.477Z,34.90
2023-05-06T07:30:53.388Z,35.00
2023-05-06T07:33:20.369Z,35.40
2023-05-06T07:35:47.225Z,35.90
2023-05-06T07:38:14.092Z,36.10
2023-05-06T07:40:41.210Z,36.30
2023-05-06T07:43:08.514Z,36.50
2023-05-06T07:45:35.402Z,36.40
2023-05-06T07:48:02.315Z,36.50
2023-05-06T07:50:29.794Z,36.50
2023-05-06T07:52:56.664Z,36.60
2023-05-06T07:55:23.583Z,37.10
2023-05-06T07:57:50.474Z,37.20
2023-05-06T08:00:17.446Z,37.10
2023-05-06T08:02:44.905Z,37.10
2023-05-06T08:05:12.197Z,36.80
2023-05-06T08:07:42.513Z,36.80
2023-05-06T08:10:09.911Z,37.30
2023-05-06T08:12:36.895Z,37.00
2023-05-06T08:15:04.133Z,36.70
2023-05-06T08:17:31.020Z,36.40
2023-05-06T08:19:57.823Z,36.40
2023-05-06T08:22:24.668Z,36.10
2023-05-06T08:24:51.978Z,36.00
2023-05-06T08:27:18.827Z,36.10
2023-05-06T08:29:46.007Z,36.20
2023-05-06T08:32:13.553Z,36.30
2023-05-06T08:34:41.002Z,36.10
2023-05-06T08:37:08.225Z,36.70
2023-05-06T08:39:34.995Z,37.40
2023-05-06T08:42:05.310Z,37.20
2023-05-06T08:44:33.547Z,37.00
2023-05-06T08:47:00.431Z,36.80
2023-05-06T08:49:27.276Z,36.80
2023-05-06T08:51:54.251Z,36.80
2023-05-06T08:54:21.525Z,36.50
2023-05-06T08:56:53.197Z,36.70
2023-05-06T08:59:24.894Z,36.90
2023-05-06T09:01:54.498Z,37.40
2023-05-06T09:04:21.267Z,37.30
2023-05-06T09:06:48.153Z,37.20
2023-05-06T09:09:15.081Z,37.50
2023-05-06T09:11:42.020Z,37.70
2023-05-06T09:14:16.379Z,38.10
2023-05-06T09:16:44.693Z,39.00
2023-05-06T09:19:11.856Z,39.90
2023-05-06T09:21:43.106Z,40.10
2023-05-06T09:24:10.961Z,39.90
2023-05-06T09:26:38.626Z,39.70
2023-05-06T09:29:05.906Z,40.00
2023-05-06T09:31:33.064Z,40.00
2023-05-06T09:34:00.365Z,39.70
2023-05-06T09:36:28.251Z,38.90
2023-05-06T09:38:55.962Z,38.30
2023-05-06T09:41:27.505Z,38.00
2023-05-06T09:43:54.851Z,37.90
2023-05-06T09:46:22.205Z,37.70
2023-05-06T09:48:50.800Z,37.00
2023-05-06T09:51:17.807Z,36.00
2023-05-06T09:53:45.136Z,35.40
2023-05-06T09:56:14.897Z,34.50
2023-05-06T09:58:42.532Z,33.70
2023-05-06T10:01:09.655Z,32.80
2023-05-06T10:03:36.820Z,32.30
2023-05-06T10:06:06.000Z,32.10
2023-05-06T10:08:33.848Z,31.70
2023-05-06T10:11:01.355Z,31.30
2023-05-06T10:13:28.210Z,30.80
2023-05-06T10:15:55.154Z,30.40
2023-05-06T10:18:22.208Z,30.10
2023-05-06T10:20:49.774Z,29.80
2023-05-06T10:23:42.463Z,29.50
2023-05-06T10:26:11.440Z,29.30
2023-05-06T10:28:42.359Z,29.10
2023-05-06T10:31:12.461Z,29.00
2023-05-06T10:33:44.869Z,28.90
2023-05-06T10:36:20.666Z,28.70
2023-05-06T10:38:54.956Z,28.50
2023-05-06T10:41:22.311Z,28.20
2023-05-06T10:43:57.150Z,28.00
2023-05-06T10:46:25.103Z,27.90
2023-05-06T10:49:06.812Z,27.80
2023-05-06T10:51:34.620Z,27.90
2023-05-06T10:54:07.825Z,27.90
2023-05-06T10:56:38.808Z,27.80
2023-05-06T10:59:10.182Z,27.80
2023-05-06T11:01:44.056Z,28.00
2023-05-06T11:04:15.595Z,28.10
2023-05-06T11:06:46.470Z,28.00
2023-05-06T11:09:17.311Z,27.90
2023-05-06T11:11:56.035Z,28.00
2023-05-06T11:14:36.080Z,28.20
2023-05-06T11:17:04.960Z,28.10
2023-05-06T11:19:36.043Z,28.10
2023-05-06T11:22:04.103Z,28.30
2023-05-06T11:24:32.098Z,28.50
2023-05-06T11:26:59.809Z,28.60
2023-05-06T11:29:27.121Z,28.70
2023-05-06T11:31:54.212Z,28.80
2023-05-06T11:34:22.701Z,28.70
2023-05-06T11:37:07.934Z,28.60
2023-05-06T11:39:40.450Z,28.50
2023-05-06T11:42:08.801Z,28.40
2023-05-06T11:44:39.006Z,28.30
2023-05-06T11:47:07.592Z,28.20
2023-05-06T11:49:42.752Z,27.80
2023-05-06T11:52:10.825Z,27.60
2023-05-06T11:54:41.457Z,27.50
2023-05-06T11:57:08.656Z,27.20
2023-05-06T11:59:39.901Z,27.10
2023-05-06T12:02:12.790Z,26.80
2023-05-06T12:04:46.893Z,26.70
2023-05-06T12:07:14.835Z,26.70
2023-05-06T12:09:49.215Z,26.80
2023-05-06T12:12:17.647Z,26.90
2023-05-06T12:14:44.431Z,26.80
2023-05-06T12:17:11.246Z,26.70
2023-05-06T12:19:38.287Z,26.60
2023-05-06T12:22:31.411Z,26.60
2023-05-06T12:24:58.226Z,26.80
2023-05-06T12:27:30.187Z,27.00
2023-05-06T12:29:57.026Z,27.00
2023-05-06T12:32:23.915Z,26.80
2023-05-06T12:34:50.745Z,26.70
2023-05-06T12:37:30.200Z,26.80
2023-05-06T12:39:59.197Z,27.00
2023-05-06T12:42:26.417Z,27.10
2023-05-06T12:44:53.247Z,27.00
2023-05-06T12:47:21.153Z,26.90
2023-05-06T12:49:52.802Z,26.90
2023-05-06T12:52:20.799Z,26.90
2023-05-06T12:54:47.968Z,26.90
2023-05-06T12:57:14.970Z,27.00
2023-05-06T12:59:42.794Z,27.20
2023-05-06T13:02:09.774Z,27.30
2023-05-06T13:04:36.626Z,27.50
2023-05-06T13:07:03.566Z,27.60
2023-05-06T13:09:30.487Z,27.70
2023-05-06T13:11:57.733Z,27.70
2023-05-06T13:14:24.560Z,27.80
2023-05-06T13:16:51.543Z,27.80
2023-05-06T13:19:31.506Z,27.50
2023-05-06T13:22:00.611Z,27.30
2023-05-06T13:24:27.773Z,27.10
2023-05-06T13:26:56.381Z,27.00
2023-05-06T13:29:23.753Z,27.10
2023-05-06T13:31:51.640Z,27.20
2023-05-06T13:34:18.881Z,27.30
2023-05-06T13:36:46.842Z,27.40
2023-05-06T13:39:13.906Z,27.30
2023-05-06T13:41:40.863Z,27.40
2023-05-06T13:44:07.816Z,27.40
2023-05-06T13:46:34.762Z,27.50
2023-05-06T13:49:01.638Z,27.40
2023-05-06T13:51:30.811Z,27.40
2023-05-06T13:53:57.781Z,27.50
2023-05-06T13:56:24.695Z,27.40
2023-05-06T13:58:53.189Z,27.10
2023-05-06T14:01:23.855Z,26.90
2023-05-06T14:03:50.768Z,26.90
2023-05-06T14:06:17.629Z,26.90
2023-05-06T14:08:44.460Z,27.00
2023-05-06T14:11:11.520Z,27.10
2023-05-06T14:13:40.387Z,27.20
2023-05-06T14:16:07.439Z,27.20
2023-05-06T14:18:34.452Z,27.10
2023-05-06T14:21:01.378Z,27.00
2023-05-06T14:23:28.304Z,27.10
2023-05-06T14:25:55.130Z,27.10
2023-05-06T14:28:22.009Z,27.10
2023-05-06T14:30:50.815Z,27.00
2023-05-06T14:33:17.609Z,26.90
2023-05-06T14:35:46.172Z,26.90
2023-05-06T14:38:13.088Z,26.90
2023-05-06T14:40:39.941Z,26.90
2023-05-06T14:43:07.601Z,26.90
2023-05-06T14:45:34.592Z,26.90
2023-05-06T14:48:01.642Z,26.90
2023-05-06T14:50:28.682Z,26.90
2023-05-06T14:52:55.487Z,26.90
2023-05-06T14:55:22.444Z,26.90
2023-05-06T14:57:49.436Z,26.80
2023-05-06T15:00:17.169Z,26.80
2023-05-06T15:02:44.147Z,26.90
2023-05-06T15:05:12.064Z,26.90
2023-05-06T15:07:39.205Z,26.90
2023-05-06T15:10:06.402Z,26.70
2023-05-06T15:12:33.562Z,26.70
2023-05-06T15:15:00.662Z,26.70
2023-05-06T15:17:27.493Z,26.70
2023-05-06T15:19:54.644Z,26.70
2023-05-06T15:22:21.489Z,26.70
2023-05-06T15:24:48.487Z,26.70
2023-05-06T15:27:15.458Z,26.60
2023-05-06T15:29:42.329Z,26.50
2023-05-06T15:32:09.269Z,26.40
2023-05-06T15:34:36.530Z,26.30
2023-05-06T15:37:03.412Z,26.40
2023-05-06T15:39:31.267Z,26.40
2023-05-06T15:41:59.382Z,26.50
2023-05-06T15:44:26.931Z,26.50
2023-05-06T15:46:53.970Z,26.50
2023-05-06T15:51:50.625Z,26.50
2023-05-06T15:54:20.137Z,26.40
2023-05-06T15:56:47.085Z,26.30
2023-05-06T15:59:14.035Z,26.20
2023-05-06T16:02:24.728Z,26.20
2023-05-06T16:04:28.817Z,26.20
2023-05-06T16:06:56.198Z,26.10
2023-05-06T16:09:23.321Z,26.10
2023-05-06T16:11:50.150Z,26.10
2023-05-06T16:14:17.010Z,26.00
2023-05-06T16:16:43.920Z,26.00
2023-05-06T16:19:10.834Z,25.90
2023-05-06T16:21:37.685Z,25.70
2023-05-06T16:24:04.645Z,25.60
2023-05-06T16:26:31.653Z,25.50
2023-05-06T16:28:59.590Z,25.50
2023-05-06T16:31:26.584Z,25.40
2023-05-06T16:33:53.792Z,25.30
2023-05-06T16:36:20.661Z,25.20
2023-05-06T16:38:47.553Z,25.20
2023-05-06T16:41:14.411Z,25.20
2023-05-06T16:43:41.361Z,25.20
2023-05-06T16:46:08.252Z,25.10
2023-05-06T16:48:35.277Z,25.10
2023-05-06T16:51:02.236Z,25.10
2023-05-06T16:53:29.498Z,25.00
2023-05-06T16:55:56.425Z,25.00
2023-05-06T16:58:23.261Z,25.00
2023-05-06T17:00:52.676Z,24.90
2023-05-06T17:03:19.708Z,24.90
2023-05-06T17:05:47.092Z,24.80
2023-05-06T17:08:16.171Z,24.70
2023-05-06T17:10:43.579Z,24.70
2023-05-06T17:13:10.643Z,24.70
2023-05-06T17:15:37.654Z,24.60
2023-05-06T17:18:04.647Z,24.60
2023-05-06T17:20:31.509Z,24.50
2023-05-06T17:22:58.347Z,24.40
2023-05-06T17:25:25.428Z,24.40
2023-05-06T17:27:52.328Z,24.40
2023-05-06T17:30:20.868Z,24.30
2023-05-06T17:32:47.927Z,24.20
2023-05-06T17:35:15.055Z,24.10
2023-05-06T17:37:41.967Z,24.00
2023-05-06T17:40:09.212Z,23.90
2023-05-06T17:42:36.147Z,23.80
2023-05-06T17:45:03.027Z,23.70
2023-05-06T17:47:30.349Z,23.60
2023-05-06T17:49:57.492Z,23.50
2023-05-06T17:52:25.755Z,23.40
2023-05-06T17:55:10.814Z,23.30
2023-05-06T17:57:38.518Z,23.20
2023-05-06T18:00:07.434Z,23.00
2023-05-06T18:02:34.522Z,22.90
2023-05-06T18:05:01.536Z,22.70
2023-05-06T18:07:29.129Z,22.50
2023-05-06T18:09:56.414Z,22.50
2023-05-06T18:12:23.902Z,22.30
2023-05-06T18:14:50.827Z,22.20
2023-05-06T18:17:17.631Z,22.00
2023-05-06T18:19:44.415Z,21.90
2023-05-06T18:22:11.268Z,21.70
2023-05-06T18:24:38.262Z,21.60
2023-05-06T18:27:05.220Z,21.40
2023-05-06T18:29:33.261Z,21.30
2023-05-06T18:32:01.271Z,21.10
2023-05-06T18:34:28.216Z,21.00
2023-05-06T18:36:55.084Z,20.90
2023-05-06T18:39:23.199Z,20.70
2023-05-06T18:41:50.028Z,20.70
2023-05-06T18:44:16.853Z,20.60
2023-05-06T18:46:43.651Z,20.50
2023-05-06T18:49:10.775Z,20.30
2023-05-06T18:51:37.581Z,20.20
2023-05-06T18:54:04.453Z,20.20
2023-05-06T18:56:31.716Z,20.10
2023-05-06T18:58:58.545Z,20.00
2023-05-06T19:01:25.583Z,19.90
2023-05-06T19:03:52.583Z,19.80
2023-05-06T19:06:19.489Z,19.70
2023-05-06T19:08:46.929Z,19.60
2023-05-06T19:11:18.960Z,19.60
2023-05-06T19:13:46.283Z,19.50
2023-05-06T19:16:13.634Z,19.50
2023-05-06T19:18:40.662Z,19.40
2023-05-06T19:21:10.122Z,19.30
2023-05-06T19:23:37.099Z,19.20
2023-05-06T19:26:06.365Z,19.10
2023-05-06T19:28:34.317Z,19.10
2023-05-06T19:31:01.555Z,19.00
2023-05-06T19:33:28.648Z,19.00
2023-05-06T19:35:55.558Z,18.90
2023-05-06T19:38:22.404Z,18.90
2023-05-06T19:40:49.500Z,18.90
2023-05-06T19:43:16.734Z,18.80
2023-05-06T19:45:43.532Z,18.80
2023-05-06T19:48:10.338Z,18.70
2023-05-06T19:50:37.235Z,18.70
2023-05-06T19:53:04.217Z,18.60
2023-05-06T19:55:34.570Z,18.60
2023-05-06T19:58:02.314Z,18.50
2023-05-06T20:00:30.382Z,18.50
2023-05-06T20:02:58.137Z,18.40
2023-05-06T20:05:31.921Z,18.30
2023-05-06T20:07:59.920Z,18.30
2023-05-06T20:10:27.505Z,18.20
2023-05-06T20:12:57.220Z,18.10
2023-05-06T20:15:24.655Z,18.10
2023-05-06T20:17:51.474Z,18.10
2023-05-06T20:20:19.426Z,18.10
2023-05-06T20:22:46.286Z,18.00
2023-05-06T20:25:16.106Z,18.00
2023-05-06T20:27:43.521Z,17.90
2023-05-06T20:30:10.791Z,17.80
2023-05-06T20:32:38.741Z,17.80
2023-05-06T20:35:06.320Z,17.60
2023-05-06T20:37:36.527Z,17.60
2023-05-06T20:40:06.621Z,17.50
2023-05-06T20:42:34.019Z,17.50
2023-05-06T20:45:01.176Z,17.40
2023-05-06T20:47:27.990Z,17.40
2023-05-06T20:49:55.126Z,17.30
2023-05-06T20:52:21.983Z,17.30
2023-05-06T20:54:48.961Z,17.20
2023-05-06T20:57:16.448Z,17.10
2023-05-06T20:59:43.358Z,17.00
2023-05-06T21:02:10.350Z,17.00
2023-05-06T21:04:39.978Z,16.90
2023-05-06T21:07:06.765Z,17.00
2023-05-06T21:09:33.635Z,16.90
2023-05-06T21:12:00.400Z,16.90
2023-05-06T21:14:27.457Z,16.90
2023-05-06T21:16:54.280Z,16.90
2023-05-06T21:19:21.141Z,16.90
2023-05-06T21:21:48.395Z,16.80
2023-05-06T21:24:15.450Z,16.70
2023-05-06T21:26:42.237Z,16.70
2023-05-06T21:29:09.041Z,16.60
2023-05-06T21:31:36.227Z,16.60
2023-05-06T21:34:04.226Z,16.50
2023-05-06T21:36:31.304Z,16.30
2023-05-06T21:39:11.987Z,16.20
2023-05-06T21:41:39.355Z,16.20
2023-05-06T21:44:07.208Z,16.20
2023-05-06T21:46:34.363Z,16.20
2023-05-06T21:49:01.358Z,16.20
2023-05-06T21:51:28.335Z,16.20
2023-05-06T21:53:55.208Z,16.30
2023-05-06T21:56:22.352Z,16.30
2023-05-06T21:58:49.407Z,16.30
2023-05-06T22:01:16.266Z,16.20
2023-05-06T22:03:44.058Z,16.10
2023-05-06T22:06:10.932Z,16.10
2023-05-06T22:08:37.764Z,16.10
2023-05-06T22:11:04.562Z,16.10
2023-05-06T22:13:31.657Z,16.10
2023-05-06T22:15:58.590Z,16.10
2023-05-06T22:18:27.905Z,16.00
2023-05-06T22:20:56.495Z,15.90
2023-05-06T22:23:24.403Z,15.90
2023-05-06T22:25:54.504Z,15.80
2023-05-06T22:28:21.783Z,15.80
2023-05-06T22:30:48.652Z,15.70
2023-05-06T22:33:15.505Z,15.70
2023-05-06T22:35:42.338Z,15.70
2023-05-06T22:38:09.106Z,15.70
2023-05-06T22:40:35.927Z,15.60
2023-05-06T22:43:02.785Z,15.50
2023-05-06T22:45:29.651Z,15.40
2023-05-06T22:47:56.878Z,15.40
2023-05-06T22:50:25.031Z,15.40
2023-05-06T22:52:51.969Z,15.40
2023-05-06T22:55:18.928Z,15.30
2023-05-06T22:57:47.115Z,15.30
2023-05-06T23:00:13.986Z,15.20
2023-05-06T23:02:40.990Z,15.10
2023-05-06T23:05:08.307Z,15.10
2023-05-06T23:07:35.781Z,15.10
2023-05-06T23:10:02.612Z,15.00
2023-05-06T23:12:33.482Z,15.00
2023-05-06T23:15:00.469Z,14.90
2023-05-06T23:17:27.317Z,14.90
2023-05-06T23:19:54.132Z,14.90
2023-05-06T23:22:20.996Z,14.80
2023-05-06T23:24:47.906Z,14.80
2023-05-06T23:27:14.731Z,14.80
2023-05-06T23:29:41.710Z,14.70
2023-05-06T23:32:08.677Z,14.70
2023-05-06T23:34:35.486Z,14.60
2023-05-06T23:37:02.251Z,14.60
2023-05-06T23:39:29.097Z,14.60
2023-05-06T23:41:56.042Z,14.50
2023-05-06T23:44:23.120Z,14.50
2023-05-06T23:46:50.089Z,14.50
2023-05-06T23:49:17.051Z,14.40
2023-05-06T23:51:43.817Z,14.40
2023-05-06T23:54:10.615Z,14.30
2023-05-06T23:56:37.443Z,14.20
2023-05-06T23:59:04.261Z,14.20
